createdAt,value
2023-01-05T00:01:53.115Z,20.23
2023-01-05T00:04:20.618Z,22.73
2023-01-05T00:06:47.514Z,18.77
2023-01-05T00:09:17.581Z,24.05
2023-01-05T00:12:02.903Z,18.77
2023-01-05T00:14:50.366Z,20.13
2023-01-05T00:17:38.941Z,17.67
2023-01-05T00:20:30.129Z,18.95
2023-01-05T00:22:57.051Z,16.65
2023-01-05T00:25:30.090Z,18.20
2023-01-05T00:27:59.017Z,14.90
2023-01-05T00:30:32.677Z,16.75
2023-01-05T00:32:59.708Z,16.80
2023-01-05T00:35:26.691Z,19.60
2023-01-05T00:37:54.979Z,16.52
2023-01-05T00:40:25.460Z,16.98
2023-01-05T00:42:54.937Z,18.58
2023-01-05T00:45:22.279Z,16.10
2023-01-05T00:47:51.846Z,19.52
2023-01-05T00:50:19.772Z,17.55
2023-01-05T00:52:47.187Z,20.45
2023-01-05T00:55:14.859Z,18.02
2023-01-05T00:57:42.214Z,19.90
2023-01-05T01:00:17.342Z,21.20
2023-01-05T01:02:44.562Z,33.20
2023-01-05T01:05:11.880Z,29.88
2023-01-05T01:07:39.007Z,29.35
2023-01-05T01:10:07.024Z,22.67
2023-01-05T01:12:34.073Z,22.17
2023-01-05T01:15:01.063Z,17.17
2023-01-05T01:17:28.345Z,21.30
2023-01-05T01:19:55.238Z,22.33
2023-01-05T01:22:22.245Z,19.73
2023-01-05T01:24:49.267Z,20.27
2023-01-05T01:27:16.243Z,21.83
2023-01-05T01:29:43.144Z,23.35
2023-01-05T01:32:10.203Z,22.77
2023-01-05T01:34:37.190Z,22.02
2023-01-05T01:37:04.182Z,18.50
2023-01-05T01:39:37.010Z,25.98
2023-01-05T01:42:15.017Z,23.33
2023-01-05T01:45:02.658Z,21.45
2023-01-05T01:47:45.900Z,23.23
2023-01-05T01:50:30.916Z,19.23
2023-01-05T01:53:08.259Z,27.10
2023-01-05T01:55:36.979Z,23.05
2023-01-05T01:58:07.418Z,22.10
2023-01-05T02:00:34.471Z,22.95
2023-01-05T02:03:01.386Z,23.58
2023-01-05T02:05:32.832Z,22.10
2023-01-05T02:07:59.843Z,21.27
2023-01-05T02:10:57.489Z,20.75
2023-01-05T02:16:34.615Z,21.17
2023-01-05T02:19:24.058Z,23.77
2023-01-05T02:22:19.907Z,23.55
2023-01-05T02:24:58.629Z,19.40
2023-01-05T02:27:47.314Z,20.88
2023-01-05T02:30:44.560Z,22.50
2023-01-05T02:33:54.900Z,21.75
2023-01-05T02:36:44.157Z,20.95
2023-01-05T02:39:16.778Z,22.08
2023-01-05T02:41:49.294Z,21.63
2023-01-05T02:44:18.929Z,20.10
2023-01-05T02:47:28.240Z,24.23
2023-01-05T02:50:04.941Z,22.02
2023-01-05T02:52:54.637Z,21.95
2023-01-05T02:55:32.384Z,26.40
2023-01-05T02:58:16.670Z,22.88
2023-01-05T03:00:50.818Z,22.45
2023-01-05T03:03:34.323Z,23.63
2023-01-05T03:06:47.283Z,23.27
2023-01-05T03:09:20.230Z,24.25
2023-01-05T03:12:28.502Z,24.45
2023-01-05T03:15:12.577Z,21.15
2023-01-05T03:17:51.401Z,23.20
2023-01-05T03:20:24.682Z,24.63
2023-01-05T03:23:15.074Z,24.73
2023-01-05T03:26:00.960Z,27.05
2023-01-05T03:28:58.083Z,24.73
2023-01-05T03:32:29.102Z,24.80
2023-01-05T03:35:29.771Z,23.83
2023-01-05T03:38:00.563Z,34.67
2023-01-05T03:40:31.178Z,28.33
2023-01-05T03:42:59.152Z,26.33
2023-01-05T03:45:35.427Z,34.85
2023-01-05T03:48:03.017Z,34.63
2023-01-05T03:50:30.384Z,32.28
2023-01-05T03:52:58.096Z,26.75
2023-01-05T03:55:29.795Z,30.23
2023-01-05T03:57:56.852Z,31.83
2023-01-05T04:00:25.683Z,31.30
2023-01-05T04:03:00.278Z,36.47
2023-01-05T04:05:27.627Z,30.63
2023-01-05T04:07:54.632Z,23.98
2023-01-05T04:10:22.228Z,31.52
2023-01-05T04:12:49.807Z,32.22
2023-01-05T04:15:18.492Z,33.05
2023-01-05T04:17:46.003Z,36.35
2023-01-05T04:20:13.486Z,26.48
2023-01-05T04:22:41.119Z,28.90
2023-01-05T04:25:09.575Z,25.48
2023-01-05T04:27:37.153Z,27.88
2023-01-05T04:30:06.473Z,25.80
2023-01-05T04:32:34.343Z,26.20
2023-01-05T04:35:06.999Z,26.67
2023-01-05T04:37:40.481Z,24.90
2023-01-05T04:40:09.113Z,29.83
2023-01-05T04:42:44.125Z,26.67
2023-01-05T04:45:11.446Z,25.67
2023-01-05T04:47:38.531Z,22.17
2023-01-05T04:50:06.532Z,21.83
2023-01-05T04:52:33.466Z,20.90
2023-01-05T04:55:02.339Z,20.38
2023-01-05T04:57:30.499Z,24.35
2023-01-05T04:59:58.188Z,21.30
2023-01-05T05:02:25.415Z,23.27
2023-01-05T05:04:52.640Z,20.73
2023-01-05T05:07:21.689Z,20.92
2023-01-05T05:09:48.711Z,21.10
2023-01-05T05:12:20.452Z,20.80
2023-01-05T05:14:50.739Z,21.80
2023-01-05T05:17:18.268Z,23.27
2023-01-05T05:19:45.222Z,20.40
2023-01-05T05:22:12.990Z,18.02
2023-01-05T05:24:39.928Z,20.70
2023-01-05T05:27:08.457Z,20.08
2023-01-05T05:29:35.476Z,20.38
2023-01-05T05:32:02.293Z,18.20
2023-01-05T05:34:29.294Z,20.52
2023-01-05T05:36:56.197Z,17.80
2023-01-05T05:39:23.036Z,17.63
2023-01-05T05:41:49.962Z,27.73
2023-01-05T05:44:17.013Z,24.55
2023-01-05T05:46:44.052Z,24.70
2023-01-05T05:49:10.986Z,31.23
2023-01-05T05:51:37.889Z,26.70
2023-01-05T05:54:04.938Z,31.17
2023-01-05T05:56:31.897Z,31.85
2023-01-05T05:59:01.573Z,31.27
2023-01-05T06:01:29.356Z,31.60
2023-01-05T06:03:56.437Z,26.40
2023-01-05T06:06:23.355Z,26.30
2023-01-05T06:08:51.140Z,32.85
2023-01-05T06:11:18.170Z,27.08
2023-01-05T06:13:45.291Z,25.20
2023-01-05T06:16:12.212Z,23.10
2023-01-05T06:18:39.163Z,30.13
2023-01-05T06:21:06.399Z,25.58
2023-01-05T06:23:33.326Z,25.80
2023-01-05T06:26:00.222Z,24.95
2023-01-05T06:28:27.149Z,23.02
2023-01-05T06:30:54.055Z,23.20
2023-01-05T06:33:20.930Z,25.73
2023-01-05T06:35:47.927Z,31.38
2023-01-05T06:38:16.254Z,23.45
2023-01-05T06:40:44.705Z,25.98
2023-01-05T06:43:12.320Z,27.95
2023-01-05T06:45:39.380Z,30.08
2023-01-05T06:48:06.630Z,27.95
2023-01-05T06:50:33.486Z,31.38
2023-01-05T06:53:00.675Z,25.75
2023-01-05T06:55:27.821Z,23.58
2023-01-05T06:58:00.524Z,28.17
2023-01-05T07:00:28.601Z,31.17
2023-01-05T07:02:55.641Z,28.60
2023-01-05T07:05:24.758Z,28.27
2023-01-05T07:07:51.912Z,27.02
2023-01-05T07:10:18.879Z,25.73
2023-01-05T07:12:45.763Z,33.05
2023-01-05T07:15:12.717Z,26.35
2023-01-05T07:17:39.876Z,29.73
2023-01-05T07:20:08.118Z,28.33
2023-01-05T07:22:35.385Z,29.15
2023-01-05T07:25:02.359Z,32.38
2023-01-05T07:27:29.267Z,25.60
2023-01-05T07:29:56.215Z,24.83
2023-01-05T07:32:23.200Z,26.10
2023-01-05T07:34:55.252Z,26.70
2023-01-05T07:37:25.047Z,27.83
2023-01-05T07:39:52.611Z,26.30
2023-01-05T07:42:19.689Z,29.92
2023-01-05T07:44:48.438Z,30.27
2023-01-05T07:47:15.296Z,31.65
2023-01-05T07:49:42.224Z,32.15
2023-01-05T07:52:09.336Z,29.00
2023-01-05T07:54:36.306Z,40.28
2023-01-05T07:57:03.588Z,29.27
2023-01-05T07:59:30.613Z,35.88
2023-01-05T08:01:58.724Z,38.25
2023-01-05T08:04:25.914Z,38.95
2023-01-05T08:06:52.945Z,36.92
2023-01-05T08:09:38.457Z,38.55
2023-01-05T08:12:05.757Z,44.00
2023-01-05T08:14:32.933Z,38.00
2023-01-05T08:16:59.950Z,52.78
2023-01-05T08:19:27.058Z,45.88
2023-01-05T08:21:53.986Z,52.78
2023-01-05T08:24:20.873Z,49.78
2023-01-05T08:26:50.796Z,41.10
2023-01-05T08:29:17.750Z,51.17
2023-01-05T08:31:44.704Z,46.72
2023-01-05T08:34:11.621Z,38.10
2023-01-05T08:36:40.132Z,36.42
2023-01-05T08:39:07.487Z,26.85
2023-01-05T08:41:36.669Z,26.10
2023-01-05T08:44:10.740Z,24.75
2023-01-05T08:46:37.823Z,21.42
2023-01-05T08:49:07.642Z,24.63
2023-01-05T08:51:34.672Z,23.65
2023-01-05T08:54:01.695Z,29.90
2023-01-05T08:56:34.619Z,25.15
2023-01-05T08:59:05.242Z,21.15
2023-01-05T09:01:32.259Z,24.27
2023-01-05T09:03:59.283Z,30.42
2023-01-05T09:06:26.215Z,25.80
2023-01-05T09:08:53.160Z,21.13
2023-01-05T09:11:22.457Z,22.45
2023-01-05T09:13:54.836Z,21.73
2023-01-05T09:16:56.918Z,25.13
2023-01-05T09:19:12.089Z,27.10
2023-01-05T09:21:41.759Z,24.67
2023-01-05T09:24:13.037Z,25.55
2023-01-05T09:26:41.322Z,28.50
2023-01-05T09:29:09.196Z,29.10
2023-01-05T09:31:36.172Z,26.58
2023-01-05T09:34:04.245Z,28.65
2023-01-05T09:36:32.452Z,26.70
2023-01-05T09:38:59.547Z,24.45
2023-01-05T09:41:58.805Z,25.95
2023-01-05T09:44:25.664Z,23.85
2023-01-05T10:17:41.750Z,29.33
2023-01-05T10:20:50.034Z,33.10
2023-01-05T10:23:24.639Z,33.95
2023-01-05T10:26:08.056Z,31.67
2023-01-05T10:28:47.109Z,27.27
2023-01-05T10:31:14.172Z,29.88
2023-01-05T10:33:56.675Z,25.77
2023-01-05T10:37:13.639Z,26.80
2023-01-05T10:40:21.486Z,25.42
2023-01-05T10:43:09.259Z,32.20
2023-01-05T10:45:57.264Z,31.73
2023-01-05T10:48:31.714Z,20.95
2023-01-05T10:50:58.966Z,24.92
2023-01-05T10:53:29.158Z,21.17
2023-01-05T10:56:06.527Z,19.08
2023-01-05T10:58:36.063Z,19.58
2023-01-05T11:01:05.689Z,17.88
2023-01-05T11:06:35.423Z,18.50
2023-01-05T11:09:24.006Z,19.80
2023-01-05T11:12:02.355Z,21.92
2023-01-05T11:14:33.486Z,23.33
2023-01-05T11:17:06.981Z,21.65
2023-01-05T11:19:43.884Z,22.45
2023-01-05T11:22:36.879Z,16.02
2023-01-05T11:25:27.568Z,21.63
2023-01-05T11:28:09.315Z,19.70
2023-01-05T11:30:37.709Z,16.25
2023-01-05T11:33:16.252Z,18.17
2023-01-05T11:35:46.858Z,17.27
2023-01-05T11:38:26.203Z,20.85
2023-01-05T11:40:56.452Z,13.63
2023-01-05T11:43:27.071Z,22.23
2023-01-05T11:45:57.889Z,15.57
2023-01-05T11:48:29.025Z,19.45
2023-01-05T11:50:58.356Z,15.50
2023-01-05T11:53:36.391Z,17.15
2023-01-05T11:56:13.624Z,25.10
2023-01-05T11:58:46.858Z,16.92
2023-01-05T12:01:32.965Z,13.95
2023-01-05T12:04:21.318Z,16.48
2023-01-05T12:07:00.205Z,19.02
2023-01-05T12:09:39.681Z,19.05
2023-01-05T12:13:02.236Z,25.75
2023-01-05T12:15:34.953Z,20.95
2023-01-05T12:18:38.936Z,23.35
2023-01-05T12:21:15.108Z,16.15
2023-01-05T12:23:47.420Z,19.65
2023-01-05T12:26:38.570Z,17.50
2023-01-05T12:35:39.026Z,13.60
2023-01-05T12:38:30.052Z,14.47
2023-01-05T12:41:05.791Z,15.70
2023-01-05T12:43:51.283Z,12.83
2023-01-05T12:46:33.346Z,11.23
2023-01-05T12:49:06.150Z,15.55
2023-01-05T12:51:36.445Z,14.60
2023-01-05T12:54:10.702Z,12.25
2023-01-05T12:57:09.134Z,12.55
2023-01-05T12:59:45.042Z,14.98
2023-01-05T13:02:33.635Z,15.20
2023-01-05T13:05:18.946Z,12.57
2023-01-05T13:07:54.302Z,15.27
2023-01-05T13:10:44.605Z,23.90
2023-01-05T13:13:14.957Z,20.40
2023-01-05T13:15:54.257Z,16.13
2023-01-05T13:18:24.802Z,15.45
2023-01-05T13:20:57.903Z,12.27
2023-01-05T13:23:27.441Z,14.13
2023-01-05T13:26:03.200Z,24.55
2023-01-05T13:28:31.972Z,18.60
2023-01-05T13:31:09.073Z,13.30
2023-01-05T13:33:39.565Z,18.02
2023-01-05T13:36:24.929Z,17.80
2023-01-05T13:39:07.050Z,17.48
2023-01-05T13:41:52.473Z,14.40
2023-01-05T13:44:49.339Z,14.68
2023-01-05T13:47:16.658Z,18.40
2023-01-05T13:50:21.920Z,16.60
2023-01-05T13:52:57.544Z,16.40
2023-01-05T13:55:26.824Z,13.47
2023-01-05T13:57:57.866Z,20.58
2023-01-05T14:00:40.057Z,16.10
2023-01-05T14:03:20.898Z,18.08
2023-01-05T14:05:57.605Z,13.02
2023-01-05T14:08:29.801Z,13.02
2023-01-05T14:11:21.310Z,20.20
2023-01-05T14:13:59.764Z,19.88
2023-01-05T14:16:38.748Z,22.10
2023-01-05T14:19:46.816Z,30.55
2023-01-05T14:24:49.456Z,29.90
2023-01-05T14:27:17.803Z,34.33
2023-01-05T14:29:44.847Z,27.60
2023-01-05T14:32:22.021Z,33.20
2023-01-05T14:34:52.722Z,31.00
2023-01-05T14:37:29.683Z,39.55
2023-01-05T14:40:04.145Z,34.35
2023-01-05T14:42:39.970Z,31.55
2023-01-05T14:45:20.473Z,24.27
2023-01-05T14:47:49.982Z,15.50
2023-01-05T14:50:39.353Z,11.07
2023-01-05T14:53:43.420Z,8.95
2023-01-05T14:56:16.958Z,10.60
2023-01-05T14:58:43.968Z,10.48
2023-01-05T15:01:17.315Z,11.40
2023-01-05T15:03:55.424Z,12.68
2023-01-05T15:06:38.520Z,8.68
2023-01-05T15:09:30.510Z,9.18
2023-01-05T15:12:32.637Z,8.88
2023-01-05T15:15:20.329Z,6.25
2023-01-05T15:18:22.533Z,7.00
2023-01-05T15:20:52.336Z,10.32
2023-01-05T15:23:36.498Z,10.30
2023-01-05T15:26:40.314Z,9.15
2023-01-05T15:29:46.372Z,8.95
2023-01-05T15:32:14.457Z,9.93
2023-01-05T15:34:47.569Z,6.10
2023-01-05T15:37:31.060Z,6.53
2023-01-05T15:40:04.674Z,4.43
2023-01-05T15:42:42.353Z,11.07
2023-01-05T15:45:35.240Z,7.13
2023-01-05T15:48:13.187Z,9.43
2023-01-05T15:50:53.420Z,11.82
2023-01-05T15:53:30.889Z,8.32
2023-01-05T15:55:58.739Z,8.05
2023-01-05T15:58:29.410Z,9.65
2023-01-05T16:01:05.167Z,11.52
2023-01-05T16:03:34.886Z,10.80
2023-01-05T16:06:09.087Z,9.25
2023-01-05T16:08:42.082Z,7.10
2023-01-05T16:11:11.294Z,6.07
2023-01-05T16:14:02.391Z,9.95
2023-01-05T16:16:51.946Z,14.52
2023-01-05T16:19:45.109Z,10.00
2023-01-05T16:22:21.590Z,6.53
2023-01-05T16:27:25.300Z,5.65
2023-01-05T16:29:52.286Z,7.05
2023-01-05T16:32:30.012Z,5.85
2023-01-05T16:35:35.842Z,4.78
2023-01-05T16:38:08.899Z,8.48
2023-01-05T16:41:05.034Z,3.90
2023-01-05T16:43:42.526Z,6.55
2023-01-05T16:46:20.518Z,19.70
2023-01-05T16:48:52.027Z,13.43
2023-01-05T16:51:22.133Z,10.65
2023-01-05T16:53:57.223Z,8.27
2023-01-05T16:56:33.187Z,8.70
2023-01-05T16:59:24.249Z,14.32
2023-01-05T17:01:52.218Z,13.63
2023-01-05T17:04:19.146Z,17.45
2023-01-05T17:06:48.584Z,12.90
2023-01-05T17:09:27.766Z,7.55
2023-01-05T17:11:55.289Z,15.02
2023-01-05T17:14:23.945Z,5.70
2023-01-05T17:16:51.424Z,4.18
2023-01-05T17:19:20.986Z,10.52
2023-01-05T17:22:10.315Z,4.78
2023-01-05T17:24:39.229Z,6.93
2023-01-05T17:27:06.241Z,4.22
2023-01-05T17:29:33.552Z,5.68
2023-01-05T17:32:00.436Z,4.82
2023-01-05T17:34:27.454Z,5.13
2023-01-05T17:36:57.488Z,5.55
2023-01-05T17:39:24.535Z,4.50
2023-01-05T17:41:51.915Z,5.15
2023-01-05T17:44:19.573Z,5.22
2023-01-05T17:46:47.812Z,4.13
2023-01-05T17:49:17.991Z,6.22
2023-01-05T17:51:45.036Z,5.50
2023-01-05T17:54:12.648Z,7.90
2023-01-05T17:56:39.733Z,7.38
2023-01-05T17:59:07.209Z,12.60
2023-01-05T18:01:34.467Z,12.15
2023-01-05T18:04:02.193Z,6.28
2023-01-05T18:06:29.256Z,5.63
2023-01-05T18:08:57.671Z,7.07
2023-01-05T18:11:24.745Z,8.75
2023-01-05T18:13:51.706Z,11.27
2023-01-05T18:16:18.695Z,9.25
2023-01-05T18:18:45.726Z,9.35
2023-01-05T18:21:12.695Z,8.85
2023-01-05T18:23:39.712Z,10.82
2023-01-05T18:26:08.975Z,8.40
2023-01-05T18:28:37.345Z,8.00
2023-01-05T18:31:15.351Z,6.63
2023-01-05T18:33:42.579Z,8.23
2023-01-05T18:36:13.991Z,8.40
2023-01-05T18:38:41.796Z,7.75
2023-01-05T18:41:09.396Z,9.55
2023-01-05T18:43:36.470Z,8.25
2023-01-05T18:46:04.519Z,8.05
2023-01-05T18:48:31.627Z,10.70
2023-01-05T18:50:58.755Z,6.85
2023-01-05T18:53:25.876Z,10.02
2023-01-05T18:55:53.223Z,8.70
2023-01-05T18:58:20.101Z,9.48
2023-01-05T19:00:47.426Z,7.80
2023-01-05T19:03:14.579Z,7.53
2023-01-05T19:05:43.822Z,7.72
2023-01-05T19:08:12.457Z,12.50
2023-01-05T19:10:40.351Z,9.90
2023-01-05T19:13:08.125Z,7.80
2023-01-05T19:15:36.802Z,6.82
2023-01-05T19:18:04.004Z,5.38
2023-01-05T19:20:31.920Z,5.68
2023-01-05T19:23:00.307Z,6.00
2023-01-05T19:25:27.762Z,7.07
2023-01-05T19:27:54.875Z,8.23
2023-01-05T19:30:23.849Z,7.53
2023-01-05T19:32:51.556Z,7.57
2023-01-05T19:35:18.775Z,6.15
2023-01-05T19:37:45.829Z,6.70
2023-01-05T19:40:13.085Z,5.03
2023-01-05T19:42:40.118Z,6.15
2023-01-05T19:45:09.545Z,5.68
2023-01-05T19:47:40.861Z,7.68
2023-01-05T19:50:10.275Z,6.05
2023-01-05T19:52:38.465Z,7.50
2023-01-05T19:55:06.351Z,6.60
2023-01-05T19:57:33.514Z,5.68
2023-01-05T20:00:00.431Z,6.90
2023-01-05T20:02:27.465Z,6.00
2023-01-05T20:04:54.635Z,5.55
2023-01-05T20:07:22.538Z,6.80
2023-01-05T20:09:51.413Z,6.50
2023-01-05T20:12:18.474Z,6.82
2023-01-05T20:14:45.578Z,5.95
2023-01-05T20:17:13.410Z,6.35
2023-01-05T20:19:41.087Z,7.22
2023-01-05T20:22:13.926Z,5.68
2023-01-05T20:24:42.278Z,8.57
2023-01-05T20:27:12.660Z,5.13
2023-01-05T20:29:40.856Z,6.65
2023-01-05T20:32:28.192Z,5.05
2023-01-05T20:35:00.386Z,9.07
2023-01-05T20:37:29.377Z,9.98
2023-01-05T20:39:58.505Z,6.97
2023-01-05T20:42:27.024Z,6.30
2023-01-05T20:44:54.301Z,6.07
2023-01-05T20:47:21.292Z,4.07
2023-01-05T20:49:48.520Z,5.18
2023-01-05T20:52:17.799Z,6.03
2023-01-05T20:54:45.211Z,4.22
2023-01-05T20:57:12.496Z,5.53
2023-01-05T20:59:40.978Z,4.60
2023-01-05T21:02:22.471Z,5.78
2023-01-05T21:04:50.936Z,3.83
2023-01-05T21:07:18.042Z,4.18
2023-01-05T21:09:44.968Z,5.32
2023-01-05T21:12:11.960Z,4.55
2023-01-05T21:14:38.967Z,3.63
2023-01-05T21:17:06.099Z,5.70
2023-01-05T21:19:34.071Z,5.43
2023-01-05T21:22:01.072Z,3.83
2023-01-05T21:24:28.397Z,3.95
2023-01-05T21:26:55.424Z,6.25
2023-01-05T21:29:26.162Z,5.15
2023-01-05T21:31:56.570Z,6.47
2023-01-05T21:34:23.928Z,4.97
2023-01-05T21:36:51.104Z,6.30
2023-01-05T21:39:21.632Z,5.03
2023-01-05T21:42:09.149Z,5.55
2023-01-05T21:44:36.516Z,6.25
2023-01-05T21:47:05.828Z,5.53
2023-01-05T21:49:34.914Z,5.18
2023-01-05T21:52:20.305Z,4.00
2023-01-05T21:55:05.975Z,4.05
2023-01-05T21:57:32.969Z,6.00
2023-01-05T21:59:59.927Z,5.35
2023-01-05T22:02:26.893Z,5.22
2023-01-05T22:04:53.831Z,9.55
2023-01-05T22:07:20.800Z,8.10
2023-01-05T22:09:47.813Z,7.60
2023-01-05T22:12:14.793Z,6.18
2023-01-05T22:14:41.780Z,4.70
2023-01-05T22:17:09.904Z,8.55
2023-01-05T22:19:37.072Z,4.45
2023-01-05T22:22:04.649Z,5.43
2023-01-05T22:24:31.582Z,6.68
2023-01-05T22:26:58.659Z,6.20
2023-01-05T22:29:25.742Z,5.53
2023-01-05T22:31:52.813Z,4.85
2023-01-05T22:34:20.008Z,4.75
2023-01-05T22:36:47.108Z,7.72
2023-01-05T22:39:14.143Z,7.78
2023-01-05T22:41:41.324Z,4.53
2023-01-05T22:44:08.594Z,4.80
2023-01-05T22:46:35.843Z,5.68
2023-01-05T22:49:03.012Z,4.70
2023-01-05T22:51:33.625Z,5.38
2023-01-05T22:54:01.184Z,6.63
2023-01-05T22:56:31.975Z,6.30
2023-01-05T22:58:59.529Z,5.20
2023-01-05T23:01:38.695Z,9.40
2023-01-05T23:04:07.210Z,6.68
2023-01-05T23:06:35.139Z,6.10
2023-01-05T23:09:04.319Z,4.60
2023-01-05T23:11:37.661Z,6.80
2023-01-05T23:14:07.280Z,4.93
2023-01-05T23:16:35.486Z,7.00
2023-01-05T23:19:05.656Z,6.95
2023-01-05T23:21:33.519Z,4.53
2023-01-05T23:24:00.770Z,6.63
2023-01-05T23:26:28.246Z,6.40
2023-01-05T23:28:56.231Z,7.47
2023-01-05T23:31:23.769Z,4.93
2023-01-05T23:33:51.220Z,4.90
2023-01-05T23:36:20.094Z,5.38
2023-01-05T23:38:47.283Z,6.55
2023-01-05T23:41:15.845Z,4.78
2023-01-05T23:43:45.284Z,7.57
2023-01-05T23:46:20.807Z,5.50
2023-01-05T23:48:49.077Z,7.85
2023-01-05T23:51:17.322Z,4.53
2023-01-05T23:53:50.326Z,4.72
2023-01-05T23:56:20.247Z,6.50
2023-01-05T23:58:48.271Z,4.95
